Time;durP1;ratioP1;P1;durP2;ratioP2;P2;SDS_P1;SDS_P2;PMS_P1;PMS_P2;Temp;Humidity;BMP_temperature;BMP_pressure;BME280_temperature;BME280_humidity;BME280_pressure;Samples;Min_cycle;Max_cycle;Signal;HPM_P1;HPM_P2
2022/06/21 00:02:25;;;;;;;7.25;4.88;;;666.50;1996.80;;;;;;5093953;28;20035;-75
2022/06/21 00:04:51;;;;;;;10.85;5.63;;;666.30;2022.40;;;;;;5115365;28;20038;-75
2022/06/21 00:07:23;;;;;;;9.57;5.75;;;666.40;2022.40;;;;;;5132886;28;20030;-75
2022/06/21 00:09:49;;;;;;;8.25;5.28;;;666.40;2022.40;;;;;;5132373;28;20016;-75
2022/06/21 00:12:15;;;;;;;8.57;5.53;;;666.40;2048.00;;;;;;5132686;28;20098;-75
2022/06/21 00:14:42;;;;;;;9.27;5.45;;;666.40;2048.00;;;;;;5132672;28;20052;-75
2022/06/21 00:17:17;;;;;;;10.88;5.70;;;666.40;2073.60;;;;;;5132668;28;20026;-75
2022/06/21 00:19:44;;;;;;;7.33;5.00;;;666.20;2124.80;;;;;;5118983;28;20464;-75
2022/06/21 00:22:14;;;;;;;9.10;5.10;;;666.20;2150.40;;;;;;5132168;28;20305;-75
2022/06/21 00:24:39;;;;;;;9.40;5.50;;;666.10;2201.60;;;;;;5132682;28;20016;-75
2022/06/21 00:27:18;;;;;;;9.90;5.75;;;666.10;2227.20;;;;;;5132553;28;20019;-75
2022/06/21 00:29:44;;;;;;;7.35;5.93;;;666.20;2252.80;;;;;;5114166;28;20023;-75
2022/06/21 00:32:15;;;;;;;7.97;4.60;;;666.10;2278.40;;;;;;5134206;27;20019;-75
2022/06/21 00:34:42;;;;;;;9.63;5.57;;;666.20;2278.40;;;;;;5136343;27;20041;-75
2022/06/21 00:37:21;;;;;;;7.40;5.75;;;666.20;2278.40;;;;;;5117953;27;20054;-75
2022/06/21 00:39:47;;;;;;;9.98;5.18;;;666.10;2329.60;;;;;;5135974;27;20033;-75
2022/06/21 00:42:22;;;;;;;9.68;5.40;;;666.20;2355.20;;;;;;5121558;27;20050;-75
2022/06/21 00:45:06;;;;;;;10.02;5.07;;;666.10;2355.20;;;;;;5111709;28;20063;-75
2022/06/21 00:47:50;;;;;;;8.15;5.25;;;666.00;2355.20;;;;;;5130544;27;20071;-75
2022/06/21 00:50:29;;;;;;;7.60;6.18;;;666.10;2355.20;;;;;;5135970;27;20091;-75
2022/06/21 00:52:58;;;;;;;10.30;5.22;;;666.00;2329.60;;;;;;5136053;27;20046;-75
2022/06/21 00:55:50;;;;;;;10.15;5.43;;;666.00;2304.00;;;;;;5136062;27;20133;-76
2022/06/21 00:58:18;;;;;;;8.55;6.20;;;666.00;2278.40;;;;;;5121315;27;20011;-75
2022/06/21 01:01:00;;;;;;;8.18;5.65;;;665.90;2201.60;;;;;;5117022;27;20549;-75
2022/06/21 01:03:35;;;;;;;9.45;5.63;;;665.80;2150.40;;;;;;5135605;27;20027;-74
2022/06/21 01:06:16;;;;;;;7.65;6.18;;;665.70;2099.20;;;;;;5117304;27;20019;-75
2022/06/21 01:08:45;;;;;;;7.45;5.63;;;665.70;2073.60;;;;;;5101786;28;20064;-75
2022/06/21 01:11:16;;;;;;;10.82;5.97;;;665.70;2048.00;;;;;;5128797;27;20106;-75
2022/06/21 01:13:46;;;;;;;10.45;6.75;;;665.70;2048.00;;;;;;5117112;27;20030;-75
2022/06/21 01:16:13;;;;;;;8.70;5.88;;;665.60;2048.00;;;;;;5117302;27;20023;-75
2022/06/21 01:18:42;;;;;;;10.13;6.95;;;665.60;2048.00;;;;;;5117035;27;20019;-74
2022/06/21 01:21:11;;;;;;;11.32;6.80;;;665.60;2048.00;;;;;;5117206;27;20518;-75
2022/06/21 01:24:08;;;;;;;8.10;6.30;;;665.60;2048.00;;;;;;5120694;27;20064;-75
2022/06/21 01:26:53;;;;;;;11.68;6.10;;;665.60;2048.00;;;;;;5135481;27;20031;-75
2022/06/21 01:29:21;;;;;;;8.38;6.55;;;665.60;2048.00;;;;;;5112053;27;20015;-75
2022/06/21 01:31:48;;;;;;;11.05;6.20;;;640.80;2048.00;;;;;;5116557;27;20400;-75
2022/06/21 01:34:22;;;;;;;13.32;7.18;;;640.70;2073.60;;;;;;5116733;27;20497;-75
2022/06/21 01:37:25;;;;;;;12.02;6.43;;;640.60;2099.20;;;;;;5135340;27;20015;-76
2022/06/21 01:40:12;;;;;;;12.15;7.03;;;640.60;2099.20;;;;;;5112378;27;20035;-76
2022/06/21 01:42:51;;;;;;;11.48;6.80;;;640.60;2124.80;;;;;;5134572;27;20058;-75
2022/06/21 01:45:28;;;;;;;11.55;6.80;;;640.60;2150.40;;;;;;5124571;27;20048;-75
2022/06/21 01:48:01;;;;;;;15.20;6.65;;;640.60;2150.40;;;;;;5132634;27;20114;-75
2022/06/21 01:50:27;;;;;;;10.05;6.45;;;640.60;2176.00;;;;;;5134892;27;20014;-75
2022/06/21 01:52:55;;;;;;;11.38;6.72;;;640.60;2176.00;;;;;;5134881;27;20030;-75
2022/06/21 01:55:40;;;;;;;13.30;7.35;;;640.50;2201.60;;;;;;5125724;27;20102;-75
2022/06/21 01:58:12;;;;;;;9.57;7.00;;;640.50;2227.20;;;;;;5132419;27;20015;-75
2022/06/21 02:00:42;;;;;;;12.00;6.13;;;640.40;2227.20;;;;;;5134962;27;20020;-75
2022/06/21 02:03:15;;;;;;;12.43;7.68;;;640.40;2252.80;;;;;;5134656;27;20031;-77
2022/06/21 02:05:47;;;;;;;11.48;6.65;;;640.40;2252.80;;;;;;5134685;27;20022;-75
2022/06/21 02:08:15;;;;;;;11.88;7.03;;;640.40;2252.80;;;;;;5115841;27;20035;-75
2022/06/21 02:10:46;;;;;;;11.73;6.80;;;640.40;2278.40;;;;;;5134428;27;20076;-75
2022/06/21 02:13:17;;;;;;;10.48;7.45;;;640.40;2278.40;;;;;;5132489;27;20026;-75
2022/06/21 02:15:50;;;;;;;9.77;7.35;;;640.40;2304.00;;;;;;5122705;27;20023;-75
2022/06/21 02:18:17;;;;;;;9.90;6.68;;;640.30;2304.00;;;;;;5134169;27;20123;-75
2022/06/21 02:21:03;;;;;;;10.80;6.90;;;640.30;2329.60;;;;;;5134409;27;20423;-75
2022/06/21 02:23:29;;;;;;;15.70;7.00;;;640.30;2329.60;;;;;;5119726;27;20050;-76
2022/06/21 02:25:56;;;;;;;10.43;7.30;;;640.20;2355.20;;;;;;5125463;27;20534;-75
2022/06/21 02:28:23;;;;;;;10.40;8.00;;;640.20;2355.20;;;;;;5128692;27;20027;-75
2022/06/21 02:30:53;;;;;;;16.88;7.68;;;640.20;2380.80;;;;;;5106534;28;20475;-75
2022/06/21 02:33:22;;;;;;;10.55;6.78;;;640.40;2355.20;;;;;;5113818;27;20039;-75
2022/06/21 02:36:20;;;;;;;19.38;7.32;;;640.40;2380.80;;;;;;5134041;27;20019;-76
2022/06/21 02:38:54;;;;;;;11.52;7.22;;;640.30;2406.40;;;;;;5016711;28;20084;-77
2022/06/21 02:41:29;;;;;;;13.88;7.60;;;640.40;2406.40;;;;;;5021069;28;20403;-76
2022/06/21 02:44:10;;;;;;;9.63;7.10;;;640.40;2406.40;;;;;;5027381;28;20190;-77
2022/06/21 02:46:40;;;;;;;9.25;7.13;;;640.40;2432.00;;;;;;4998153;28;20150;-77
2022/06/21 02:49:10;;;;;;;18.75;7.28;;;640.40;2432.00;;;;;;5024418;28;20044;-77
2022/06/21 02:51:41;;;;;;;12.43;7.07;;;640.40;2432.00;;;;;;5030621;28;20048;-77
2022/06/21 02:54:18;;;;;;;13.57;6.68;;;640.40;2432.00;;;;;;5030153;28;20155;-77
2022/06/21 02:57:16;;;;;;;11.85;7.00;;;640.40;2432.00;;;;;;5030532;28;20044;-76
2022/06/21 02:59:43;;;;;;;12.55;6.53;;;640.60;2432.00;;;;;;5030533;28;20056;-77
2022/06/21 03:02:14;;;;;;;15.93;7.03;;;640.60;2432.00;;;;;;5021830;28;20408;-77
2022/06/21 03:04:50;;;;;;;15.23;7.28;;;640.60;2432.00;;;;;;5009592;28;20037;-76
2022/06/21 03:07:23;;;;;;;10.93;7.05;;;640.50;2432.00;;;;;;5030296;28;20075;-77
2022/06/21 03:09:51;;;;;;;14.68;7.55;;;640.60;2432.00;;;;;;5030206;28;20026;-76
2022/06/21 03:12:22;;;;;;;13.52;6.72;;;640.50;2432.00;;;;;;5031098;28;20029;-77
2022/06/21 03:14:49;;;;;;;12.90;7.07;;;640.60;2432.00;;;;;;5027400;27;20022;-76
2022/06/21 03:17:21;;;;;;;11.50;6.93;;;640.60;2432.00;;;;;;5136337;27;20047;-76
2022/06/21 03:19:50;;;;;;;12.02;6.68;;;640.70;2432.00;;;;;;5118881;27;20080;-76
2022/06/21 03:22:19;;;;;;;11.88;6.60;;;640.70;2432.00;;;;;;5133419;27;20027;-76
2022/06/21 03:24:49;;;;;;;14.80;6.63;;;640.70;2432.00;;;;;;5133260;27;20007;-76
2022/06/21 03:27:30;;;;;;;11.20;6.82;;;640.70;2432.00;;;;;;5114874;27;20151;-76
2022/06/21 03:29:57;;;;;;;12.00;6.78;;;640.70;2432.00;;;;;;5133480;27;20019;-77
2022/06/21 03:32:23;;;;;;;10.60;7.07;;;640.80;2432.00;;;;;;5132765;27;20274;-77
2022/06/21 03:34:50;;;;;;;14.32;6.72;;;640.70;2432.00;;;;;;5133403;27;20536;-76
2022/06/21 03:37:17;;;;;;;10.77;6.65;;;640.70;2432.00;;;;;;5132886;27;20400;-77
2022/06/21 03:42:32;;;;;;;10.68;6.57;;;640.60;2432.00;;;;;;5132824;27;20080;-76
2022/06/21 03:45:09;;;;;;;9.23;6.70;;;640.60;2432.00;;;;;;5125243;28;20026;-77
2022/06/21 03:47:47;;;;;;;8.90;6.32;;;640.60;2432.00;;;;;;5127833;28;20026;-76
2022/06/21 03:50:16;;;;;;;15.18;6.88;;;640.60;2432.00;;;;;;5132908;28;20023;-77
2022/06/21 03:52:48;;;;;;;14.30;6.55;;;640.70;2432.00;;;;;;5131684;28;20023;-76
2022/06/21 03:55:46;;;;;;;12.85;6.85;;;640.70;2432.00;;;;;;5120536;28;20058;-77
2022/06/21 03:58:23;;;;;;;11.80;7.30;;;640.70;2432.00;;;;;;5132882;28;20023;-77
2022/06/21 04:01:21;;;;;;;9.93;6.93;;;640.80;2432.00;;;;;;5127207;28;20465;-77
2022/06/21 04:04:33;;;;;;;11.70;7.10;;;640.90;2432.00;;;;;;5102367;28;20027;-77
2022/06/21 04:07:12;;;;;;;14.10;7.00;;;640.90;2432.00;;;;;;5072089;28;20020;-76
2022/06/21 04:09:50;;;;;;;8.57;6.97;;;640.70;2432.00;;;;;;5112684;27;20087;-75
2022/06/21 04:12:22;;;;;;;17.27;7.82;;;640.90;2432.00;;;;;;5136719;27;20027;-78
2022/06/21 04:15:03;;;;;;;14.48;7.43;;;640.90;2432.00;;;;;;5136592;27;20023;-77
2022/06/21 04:18:00;;;;;;;10.70;6.80;;;640.80;2432.00;;;;;;5136992;27;20469;-77
2022/06/21 04:20:41;;;;;;;14.07;7.00;;;640.80;2432.00;;;;;;5003054;28;20029;-77
2022/06/21 04:23:23;;;;;;;13.10;7.78;;;640.70;2432.00;;;;;;5033326;28;20037;-79
2022/06/21 04:26:15;;;;;;;8.85;6.35;;;640.80;2432.00;;;;;;5033261;28;20029;-78
2022/06/21 04:28:41;;;;;;;9.90;7.00;;;640.90;2432.00;;;;;;5013759;28;20077;-78
2022/06/21 04:31:29;;;;;;;13.20;6.35;;;640.90;2432.00;;;;;;5022542;28;20037;-77
2022/06/21 04:34:12;;;;;;;13.90;7.15;;;640.90;2432.00;;;;;;5016096;28;20061;-78
2022/06/21 04:36:50;;;;;;;12.05;6.97;;;640.90;2432.00;;;;;;5016826;28;20104;-78
2022/06/21 04:39:33;;;;;;;11.88;7.22;;;665.60;2432.00;;;;;;5033413;28;20029;-78
2022/06/21 04:42:08;;;;;;;21.17;8.48;;;640.90;2432.00;;;;;;5032606;28;20103;-77
2022/06/21 04:44:52;;;;;;;18.52;6.47;;;665.60;2432.00;;;;;;5029202;28;20120;-76
2022/06/21 04:47:29;;;;;;;15.52;7.18;;;665.60;2432.00;;;;;;5026020;28;20029;-76
2022/06/21 04:50:39;;;;;;;12.25;7.30;;;665.70;2432.00;;;;;;5032781;28;20029;-75
2022/06/21 04:53:32;;;;;;;15.30;7.32;;;665.70;2432.00;;;;;;4973657;28;20162;-79
2022/06/21 04:56:18;;;;;;;11.50;7.15;;;665.60;2432.00;;;;;;4973028;28;20035;-78
2022/06/21 04:58:46;;;;;;;12.07;6.95;;;665.60;2432.00;;;;;;5046092;28;20536;-79
2022/06/21 05:01:32;;;;;;;8.57;6.55;;;665.60;2432.00;;;;;;5052417;28;20053;-79
2022/06/21 05:04:06;;;;;;;17.48;6.80;;;665.70;2432.00;;;;;;5026000;28;20038;-77
2022/06/21 05:06:32;;;;;;;8.60;7.22;;;665.80;2432.00;;;;;;5049735;28;20068;-78
2022/06/21 05:08:59;;;;;;;10.70;6.75;;;665.90;2432.00;;;;;;5035575;28;20102;-75
2022/06/21 05:11:25;;;;;;;12.40;7.57;;;640.60;2432.00;;;;;;5051210;28;20071;-76
2022/06/21 05:13:55;;;;;;;17.27;6.65;;;665.90;2432.00;;;;;;5032744;28;20021;-78
2022/06/21 05:16:30;;;;;;;14.02;7.25;;;665.90;2432.00;;;;;;5031199;28;20117;-75
2022/06/21 05:19:19;;;;;;;13.57;7.30;;;666.00;2432.00;;;;;;5029213;28;20023;-77
2022/06/21 05:21:55;;;;;;;14.93;7.47;;;666.10;2432.00;;;;;;5024618;28;20034;-77
2022/06/21 05:24:22;;;;;;;15.77;6.70;;;666.20;2432.00;;;;;;5026465;28;20029;-77
2022/06/21 05:27:15;;;;;;;8.85;6.45;;;666.40;2432.00;;;;;;5052325;28;20025;-78
2022/06/21 05:29:47;;;;;;;9.23;5.45;;;666.30;2432.00;;;;;;5072139;28;20039;-78
2022/06/21 05:32:24;;;;;;;12.25;6.10;;;666.30;2432.00;;;;;;5131535;27;20027;-78
2022/06/21 05:34:57;;;;;;;10.20;6.18;;;666.30;2432.00;;;;;;5122869;27;20034;-79
2022/06/21 05:37:35;;;;;;;11.65;6.15;;;666.50;2432.00;;;;;;5134692;27;20027;-80
2022/06/21 05:40:12;;;;;;;16.48;7.00;;;666.50;2432.00;;;;;;5100431;28;20020;-81
2022/06/21 05:42:38;;;;;;;12.68;6.22;;;666.50;2432.00;;;;;;5126201;27;20095;-77
2022/06/21 05:45:13;;;;;;;16.92;7.07;;;691.20;2432.00;;;;;;5107772;28;20050;-75
2022/06/21 05:47:45;;;;;;;16.53;7.13;;;691.30;2432.00;;;;;;5130237;27;20027;-77
2022/06/21 05:50:22;;;;;;;12.82;6.18;;;691.30;2432.00;;;;;;5101956;27;20027;-79
2022/06/21 05:52:51;;;;;;;17.00;7.70;;;691.30;2432.00;;;;;;5134944;27;20473;-77
2022/06/21 05:55:26;;;;;;;15.68;6.80;;;691.40;2432.00;;;;;;5116633;27;20038;-78
2022/06/21 05:57:56;;;;;;;11.73;6.50;;;691.50;2432.00;;;;;;5134660;27;20480;-78
2022/06/21 06:00:30;;;;;;;15.80;7.05;;;691.60;2432.00;;;;;;5134527;27;20054;-76
2022/06/21 06:03:14;;;;;;;15.30;7.18;;;691.60;2432.00;;;;;;5134866;27;20512;-76
2022/06/21 06:05:41;;;;;;;11.23;6.47;;;691.70;2432.00;;;;;;5131238;27;20023;-77
2022/06/21 06:08:18;;;;;;;18.75;6.70;;;691.80;2355.20;;;;;;5113674;28;20111;-76
2022/06/21 06:10:45;;;;;;;11.60;5.80;;;691.80;2227.20;;;;;;5111231;28;20020;-76
2022/06/21 06:13:18;;;;;;;14.50;5.68;;;691.80;2150.40;;;;;;5113607;28;20023;-75
2022/06/21 06:15:52;;;;;;;15.57;6.47;;;691.90;2150.40;;;;;;5111319;28;20023;-76
2022/06/21 06:18:23;;;;;;;16.23;6.53;;;691.90;2099.20;;;;;;5116095;27;20016;-77
2022/06/21 06:20:52;;;;;;;11.82;5.97;;;692.10;2022.40;;;;;;5106392;28;20027;-74
2022/06/21 06:23:33;;;;;;;12.50;5.97;;;692.10;2048.00;;;;;;5129882;27;20461;-75
2022/06/21 06:26:02;;;;;;;11.93;5.15;;;692.10;1945.60;;;;;;5124139;27;20024;-74
2022/06/21 06:28:37;;;;;;;8.98;5.38;;;716.80;1945.60;;;;;;5115819;27;20019;-74
2022/06/21 06:31:05;;;;;;;12.95;5.88;;;716.80;1945.60;;;;;;5134266;27;20441;-77
2022/06/21 06:33:34;;;;;;;9.80;4.75;;;716.80;1920.00;;;;;;5113767;27;20098;-74
2022/06/21 06:36:07;;;;;;;10.70;4.97;;;716.80;1945.60;;;;;;5095050;28;20030;-74
2022/06/21 06:38:34;;;;;;;14.68;5.35;;;716.90;1920.00;;;;;;5116236;27;20016;-75
2022/06/21 06:41:18;;;;;;;9.02;5.40;;;717.00;1920.00;;;;;;5124409;27;20151;-74
2022/06/21 06:43:47;;;;;;;15.80;6.43;;;717.00;1920.00;;;;;;5127817;27;20019;-75
2022/06/21 06:46:31;;;;;;;12.73;5.22;;;717.10;1920.00;;;;;;5112901;28;20023;-75
2022/06/21 06:49:19;;;;;;;11.07;5.40;;;717.20;1920.00;;;;;;5110242;28;20069;-75
2022/06/21 06:52:11;;;;;;;13.25;5.88;;;717.30;1920.00;;;;;;5093141;28;20020;-75
2022/06/21 06:54:52;;;;;;;7.93;5.85;;;717.40;1920.00;;;;;;5110062;28;20043;-75
2022/06/21 06:57:32;;;;;;;11.77;5.38;;;717.50;1894.40;;;;;;5124733;27;20021;-75
2022/06/21 07:00:11;;;;;;;13.63;5.13;;;717.50;1868.80;;;;;;5119286;27;20358;-75
2022/06/21 07:02:45;;;;;;;9.45;5.25;;;717.70;1868.80;;;;;;5120278;27;20043;-74
2022/06/21 07:05:17;;;;;;;9.07;5.78;;;742.40;1920.00;;;;;;5101316;27;20022;-76
2022/06/21 07:07:53;;;;;;;37.90;7.82;;;742.40;1920.00;;;;;;5133713;27;20019;-74
2022/06/21 07:10:24;;;;;;;14.68;5.88;;;742.50;1945.60;;;;;;5110309;28;20093;-77
2022/06/21 07:12:52;;;;;;;12.52;5.60;;;742.40;1843.20;;;;;;5112269;28;20022;-75
2022/06/21 07:15:27;;;;;;;12.32;5.80;;;742.50;1843.20;;;;;;5112563;28;20024;-77
2022/06/21 07:17:56;;;;;;;14.00;5.50;;;742.60;1817.60;;;;;;5117083;27;20019;-75
2022/06/21 07:20:32;;;;;;;8.57;6.13;;;742.70;1792.00;;;;;;5133271;27;20023;-76
2022/06/21 07:22:59;;;;;;;13.18;5.18;;;742.70;1792.00;;;;;;5128791;27;20062;-74
2022/06/21 07:25:34;;;;;;;10.43;4.65;;;743.10;1766.40;;;;;;5112595;28;20020;-75
2022/06/21 07:28:20;;;;;;;10.90;5.63;;;742.80;1740.80;;;;;;5130817;27;20019;-75
2022/06/21 07:30:49;;;;;;;11.98;5.72;;;742.90;1766.40;;;;;;5133060;27;20023;-75
2022/06/21 07:33:58;;;;;;;8.75;5.40;;;743.10;1715.20;;;;;;5133057;27;20055;-76
2022/06/21 07:36:33;;;;;;;11.52;5.18;;;743.20;1715.20;;;;;;5114154;27;20126;-76
2022/06/21 07:39:04;;;;;;;9.07;4.68;;;743.10;1689.60;;;;;;5133365;27;20019;-74
2022/06/21 07:41:59;;;;;;;11.93;4.88;;;743.20;1664.00;;;;;;5096474;28;20138;-75
2022/06/21 07:44:57;;;;;;;11.43;4.97;;;743.30;1664.00;;;;;;5093547;28;20519;-74
2022/06/21 07:47:29;;;;;;;7.85;5.10;;;743.30;1638.40;;;;;;5126073;28;20027;-78
2022/06/21 07:50:02;;;;;;;6.65;4.10;;;768.10;1638.40;;;;;;5132929;28;20107;-76
2022/06/21 07:52:38;;;;;;;16.02;4.97;;;768.20;1638.40;;;;;;5132729;28;20030;-77
2022/06/21 07:55:16;;;;;;;10.40;4.35;;;768.30;1612.80;;;;;;5105590;28;20064;-75
2022/06/21 07:57:46;;;;;;;9.77;5.03;;;768.40;1587.20;;;;;;5132502;28;20027;-75
2022/06/21 08:00:18;;;;;;;8.65;4.43;;;768.40;1587.20;;;;;;5119080;28;20019;-76
2022/06/21 08:08:33;;;;;;;8.35;4.75;;;768.60;1536.00;;;;;;5113387;28;20054;-78
2022/06/21 08:11:28;;;;;;;18.33;4.43;;;768.70;1510.40;;;;;;5111740;28;20023;-78
2022/06/21 08:13:53;;;;;;;7.10;4.53;;;768.70;1484.80;;;;;;5012642;28;20369;-75
2022/06/21 08:16:33;;;;;;;10.75;4.07;;;768.80;1510.40;;;;;;5012650;28;20059;-76
2022/06/21 08:19:12;;;;;;;9.70;4.65;;;768.80;1484.80;;;;;;5028009;28;20041;-75
2022/06/21 08:22:03;;;;;;;11.30;4.40;;;768.90;1510.40;;;;;;5016015;28;20041;-75
2022/06/21 08:24:37;;;;;;;9.00;4.95;;;793.60;1536.00;;;;;;5013069;28;20092;-75
2022/06/21 08:27:20;;;;;;;8.00;4.45;;;793.60;1484.80;;;;;;5012333;28;20057;-75
2022/06/21 08:30:00;;;;;;;13.60;4.80;;;793.60;1484.80;;;;;;5028597;28;20040;-74
2022/06/21 08:32:41;;;;;;;8.65;3.97;;;793.70;1459.20;;;;;;5028413;28;20029;-75
2022/06/21 08:35:15;;;;;;;9.73;3.88;;;793.70;1459.20;;;;;;5011519;28;20025;-74
2022/06/21 08:38:01;;;;;;;14.40;4.00;;;793.90;1459.20;;;;;;5031027;28;20113;-75
2022/06/21 08:40:27;;;;;;;12.57;5.63;;;793.60;1433.60;;;;;;5038886;28;20128;-75
2022/06/21 08:42:52;;;;;;;15.82;4.40;;;793.70;1459.20;;;;;;5042925;28;20115;-74
2022/06/21 08:45:42;;;;;;;14.70;4.50;;;793.70;1484.80;;;;;;5029728;28;20032;-75
2022/06/21 08:48:19;;;;;;;8.75;4.65;;;793.90;1459.20;;;;;;5048928;28;20126;-77
2022/06/21 08:51:00;;;;;;;13.77;4.60;;;793.90;1459.20;;;;;;5079253;28;20039;-75
2022/06/21 08:53:38;;;;;;;14.95;4.32;;;794.00;1459.20;;;;;;5092990;28;21425;-74
2022/06/21 08:56:17;;;;;;;11.70;5.18;;;794.00;1459.20;;;;;;5093885;28;20016;-76
2022/06/21 08:59:01;;;;;;;10.20;5.05;;;794.00;1459.20;;;;;;5093482;28;20028;-77
2022/06/21 09:01:30;;;;;;;8.85;4.07;;;794.00;1459.20;;;;;;5093604;28;20437;-74
2022/06/21 09:04:21;;;;;;;16.60;4.50;;;794.10;1433.60;;;;;;5094682;28;20028;-75
2022/06/21 09:07:05;;;;;;;7.10;4.13;;;794.10;1408.00;;;;;;5093966;28;20039;-75
2022/06/21 09:09:34;;;;;;;13.30;3.90;;;794.20;1408.00;;;;;;5094381;28;20027;-74
2022/06/21 09:12:11;;;;;;;6.30;3.97;;;794.20;1408.00;;;;;;5094503;28;20077;-74
2022/06/21 09:14:59;;;;;;;15.18;4.68;;;794.30;1408.00;;;;;;5092136;28;20028;-74
2022/06/21 09:17:43;;;;;;;12.38;4.30;;;794.50;1408.00;;;;;;5093213;28;20008;-77
2022/06/21 09:20:11;;;;;;;7.20;4.30;;;794.50;1408.00;;;;;;5094067;28;20021;-77
2022/06/21 09:23:06;;;;;;;6.05;3.80;;;819.30;1382.40;;;;;;5093837;28;20123;-76
2022/06/21 09:25:41;;;;;;;7.35;4.15;;;819.40;1382.40;;;;;;5091613;28;20020;-73
2022/06/21 09:28:32;;;;;;;10.35;4.45;;;819.60;1382.40;;;;;;5093961;28;20153;-75
2022/06/21 09:31:03;;;;;;;21.00;4.30;;;819.60;1356.80;;;;;;5093881;28;20035;-76
2022/06/21 09:33:47;;;;;;;15.13;4.57;;;819.60;1356.80;;;;;;5091584;28;20046;-75
2022/06/21 09:36:54;;;;;;;10.70;4.47;;;819.70;1331.20;;;;;;5091962;28;20028;-76
2022/06/21 09:39:41;;;;;;;7.97;4.50;;;819.90;1356.80;;;;;;5093207;28;20150;-73
2022/06/21 09:42:53;;;;;;;10.35;5.07;;;820.00;1305.60;;;;;;5075736;28;20409;-74
2022/06/21 09:45:34;;;;;;;13.73;4.53;;;820.00;1331.20;;;;;;5011342;28;20025;-73
2022/06/21 09:48:08;;;;;;;12.82;4.22;;;820.10;1305.60;;;;;;5011338;28;20087;-73
2022/06/21 09:50:48;;;;;;;7.38;4.72;;;844.90;1331.20;;;;;;5011306;28;20480;-74
2022/06/21 09:53:46;;;;;;;10.88;4.35;;;845.10;1331.20;;;;;;5011594;28;20084;-76
2022/06/21 09:56:49;;;;;;;9.77;4.60;;;845.20;1305.60;;;;;;5009475;28;20018;-74
2022/06/21 09:59:44;;;;;;;12.77;4.40;;;845.00;1305.60;;;;;;5011179;28;20056;-75
2022/06/21 10:02:18;;;;;;;9.27;4.70;;;844.90;1280.00;;;;;;4934175;29;20044;-75
2022/06/21 10:04:50;;;;;;;19.10;4.82;;;845.10;1280.00;;;;;;4933979;29;20050;-78
2022/06/21 10:07:25;;;;;;;10.68;4.10;;;845.20;1305.60;;;;;;4934165;29;20110;-77
2022/06/21 10:10:23;;;;;;;8.43;4.60;;;845.10;1280.00;;;;;;4934282;29;20602;-77
2022/06/21 10:12:55;;;;;;;17.15;5.00;;;845.30;1254.40;;;;;;4933878;29;20077;-79
2022/06/21 10:15:23;;;;;;;13.43;4.80;;;845.60;1254.40;;;;;;4934004;29;20133;-79
2022/06/21 10:18:06;;;;;;;8.70;4.00;;;845.70;1228.80;;;;;;4934429;29;20095;-78
2022/06/21 10:21:26;;;;;;;9.27;4.45;;;845.70;1254.40;;;;;;4969734;28;20027;-80
2022/06/21 10:23:57;;;;;;;14.27;5.15;;;845.60;1228.80;;;;;;4956185;28;20038;-78
2022/06/21 10:26:40;;;;;;;12.50;4.32;;;845.60;1228.80;;;;;;4972535;28;20197;-78
2022/06/21 10:29:18;;;;;;;11.15;4.15;;;845.70;1203.20;;;;;;4972252;28;20018;-79
2022/06/21 10:31:54;;;;;;;13.55;4.25;;;845.70;1228.80;;;;;;4971905;28;20198;-79
2022/06/21 10:34:22;;;;;;;8.82;4.18;;;870.60;1203.20;;;;;;4972229;28;20023;-78
2022/06/21 10:37:12;;;;;;;11.00;4.15;;;870.60;1203.20;;;;;;4955718;28;20058;-79
2022/06/21 10:39:50;;;;;;;6.75;4.07;;;870.60;1177.60;;;;;;5053039;28;20035;-78
2022/06/21 10:45:42;;;;;;;4.70;3.72;;;870.70;1177.60;;;;;;5105567;28;20031;-78
2022/06/21 10:48:46;;;;;;;6.13;4.15;;;870.80;1177.60;;;;;;5052062;28;20417;-78
2022/06/21 10:51:31;;;;;;;11.30;4.07;;;870.90;1177.60;;;;;;5091846;28;20027;-79
2022/06/21 10:54:35;;;;;;;10.57;4.03;;;870.90;1177.60;;;;;;5101614;28;20043;-79
2022/06/21 10:57:20;;;;;;;9.95;4.43;;;871.00;1177.60;;;;;;5094965;28;20027;-80
2022/06/21 11:02:42;;;;;;;8.30;4.32;;;871.10;1152.00;;;;;;5090097;28;20022;-76
2022/06/21 11:05:14;;;;;;;9.50;4.30;;;871.00;1152.00;;;;;;5091546;28;20024;-79
2022/06/21 11:08:07;;;;;;;11.88;4.05;;;871.00;1177.60;;;;;;5091132;28;20477;-79
2022/06/21 11:10:56;;;;;;;7.63;4.18;;;871.00;1177.60;;;;;;5092555;28;20091;-79
2022/06/21 11:13:29;;;;;;;8.38;4.00;;;871.10;1177.60;;;;;;5092941;28;20493;-79
2022/06/21 11:16:07;;;;;;;11.23;4.28;;;871.30;1177.60;;;;;;5087351;28;20028;-82
2022/06/21 11:19:11;;;;;;;16.20;4.63;;;871.10;1177.60;;;;;;5101431;28;20149;-78
2022/06/21 11:22:05;;;;;;;10.20;4.10;;;871.30;1152.00;;;;;;5049487;28;20510;-80
2022/06/21 11:25:06;;;;;;;18.42;4.53;;;896.00;1152.00;;;;;;4971028;28;20065;-79
2022/06/21 11:28:09;;;;;;;10.20;5.10;;;896.20;1152.00;;;;;;4971135;28;20107;-78
2022/06/21 11:31:22;;;;;;;10.75;4.38;;;896.00;1177.60;;;;;;4967996;28;20130;-78
2022/06/21 11:34:20;;;;;;;7.78;4.20;;;896.20;1177.60;;;;;;4950786;28;20050;-79
2022/06/21 11:37:00;;;;;;;18.25;4.45;;;896.10;1177.60;;;;;;4949230;29;20798;-78
2022/06/21 11:39:41;;;;;;;11.95;4.05;;;896.30;1177.60;;;;;;4950629;29;20047;-78
2022/06/21 11:42:33;;;;;;;18.38;4.25;;;896.10;1152.00;;;;;;4950457;29;20087;-78
2022/06/21 11:45:05;;;;;;;13.82;4.60;;;896.30;1152.00;;;;;;4950959;29;20102;-83
2022/06/21 11:47:41;;;;;;;7.78;4.10;;;896.40;1152.00;;;;;;4948020;29;20114;-78
2022/06/21 11:50:29;;;;;;;18.95;4.97;;;896.40;1177.60;;;;;;4950629;29;20031;-78
2022/06/21 11:53:19;;;;;;;10.02;4.25;;;896.30;1177.60;;;;;;4950887;28;20115;-78
2022/06/21 11:56:03;;;;;;;10.45;4.53;;;871.30;1177.60;;;;;;4950808;28;20043;-78
2022/06/21 11:58:56;;;;;;;10.77;4.07;;;871.00;1177.60;;;;;;4960964;28;20038;-76
2022/06/21 12:01:32;;;;;;;13.43;4.95;;;870.60;1177.60;;;;;;4999395;28;20037;-78
2022/06/21 12:04:21;;;;;;;16.17;4.80;;;871.00;1152.00;;;;;;5048341;28;20048;-76
2022/06/21 12:07:12;;;;;;;6.68;3.60;;;871.10;1152.00;;;;;;5046054;28;20029;-76
2022/06/21 12:09:57;;;;;;;11.27;4.32;;;871.10;1126.40;;;;;;5060412;28;20039;-77
2022/06/21 12:12:26;;;;;;;11.77;4.35;;;871.30;1152.00;;;;;;5106120;28;20022;-76
2022/06/21 12:15:06;;;;;;;13.80;3.75;;;871.30;1152.00;;;;;;5095512;28;20031;-76
2022/06/21 12:17:54;;;;;;;12.68;4.00;;;871.30;1152.00;;;;;;5088296;28;20024;-77
2022/06/21 12:20:41;;;;;;;9.57;3.70;;;896.00;1126.40;;;;;;5089648;28;20032;-75
2022/06/21 12:23:25;;;;;;;7.38;3.75;;;871.30;1152.00;;;;;;5089274;28;20028;-76
2022/06/21 12:25:52;;;;;;;13.30;4.13;;;871.10;1177.60;;;;;;5088273;28;20050;-77
2022/06/21 12:28:22;;;;;;;12.85;4.55;;;871.30;1152.00;;;;;;5075031;28;20040;-76
2022/06/21 12:30:49;;;;;;;9.82;4.40;;;871.30;1152.00;;;;;;5092858;28;20042;-77
2022/06/21 12:33:18;;;;;;;7.78;3.33;;;871.20;1126.40;;;;;;5074582;28;20063;-75
2022/06/21 12:35:50;;;;;;;10.13;3.80;;;870.70;1152.00;;;;;;5076676;28;20147;-77
2022/06/21 12:38:22;;;;;;;11.05;3.65;;;870.50;1177.60;;;;;;5078076;28;20488;-76
2022/06/21 12:40:59;;;;;;;6.60;3.92;;;870.80;1152.00;;;;;;5102524;28;20411;-75
2022/06/21 12:44:06;;;;;;;9.10;4.25;;;870.90;1177.60;;;;;;5113490;28;20371;-75
2022/06/21 12:46:48;;;;;;;12.75;4.47;;;870.70;1152.00;;;;;;5010749;28;20149;-75
2022/06/21 12:49:40;;;;;;;6.60;3.88;;;870.40;1177.60;;;;;;5013792;28;20037;-77
2022/06/21 12:52:21;;;;;;;12.50;3.67;;;845.60;1152.00;;;;;;5008115;28;20042;-77
2022/06/21 12:55:10;;;;;;;6.72;3.72;;;845.60;1203.20;;;;;;5014490;28;20030;-75
2022/06/21 12:58:02;;;;;;;18.48;4.30;;;845.70;1177.60;;;;;;5011592;28;20064;-76
2022/06/21 13:00:51;;;;;;;9.00;3.72;;;845.60;1177.60;;;;;;4906566;29;20040;-74
2022/06/21 13:03:51;;;;;;;12.38;4.03;;;870.40;1177.60;;;;;;4903033;29;20103;-75
2022/06/21 13:06:31;;;;;;;9.52;3.90;;;845.70;1203.20;;;;;;4906251;29;20035;-75
2022/06/21 13:09:09;;;;;;;8.50;3.63;;;870.40;1177.60;;;;;;4906244;29;20040;-75
2022/06/21 13:11:48;;;;;;;11.25;3.30;;;870.40;1177.60;;;;;;4918373;29;20455;-77
2022/06/21 13:14:27;;;;;;;17.58;4.07;;;870.50;1177.60;;;;;;4914997;29;20937;-76
2022/06/21 13:17:23;;;;;;;9.35;3.75;;;870.60;1177.60;;;;;;4911297;29;20032;-76
2022/06/21 13:20:08;;;;;;;10.05;3.88;;;870.50;1152.00;;;;;;4908664;29;20868;-77
2022/06/21 13:22:41;;;;;;;12.93;4.20;;;870.50;1177.60;;;;;;4912550;28;20129;-76